Time;durP1;ratioP1;P1;durP2;ratioP2;P2;SDS_P1;SDS_P2;PMS_P1;PMS_P2;Temp;Humidity;BMP_temperature;BMP_pressure;BME280_temperature;BME280_humidity;BME280_pressure;Samples;Min_cycle;Max_cycle;Signal;HPM_P1;HPM_P2
2023/04/07 00:01:21;;;;;;;78.05;33.63;;;;;;;6.87;100.00;101357.13;5071888;28;20079;-75
2023/04/07 00:03:46;;;;;;;76.57;34.08;;;;;;;6.87;100.00;101351.88;5072030;28;20039;-75
2023/04/07 00:06:11;;;;;;;74.28;34.20;;;;;;;6.87;100.00;101362.38;5071855;28;20071;-76
2023/04/07 00:08:37;;;;;;;77.45;34.78;;;;;;;6.82;100.00;101357.88;5073518;28;20451;-76
2023/04/07 00:11:02;;;;;;;71.80;34.55;;;;;;;6.87;100.00;101356.25;5075815;28;20032;-76
2023/04/07 00:13:28;;;;;;;78.30;34.63;;;;;;;6.79;100.00;101353.41;5075263;28;20035;-78
2023/04/07 00:15:53;;;;;;;69.63;35.35;;;;;;;6.85;100.00;101358.84;5075168;28;20079;-71
2023/04/07 00:18:18;;;;;;;71.32;33.85;;;;;;;6.78;100.00;101355.13;5075736;28;20417;-72
2023/04/07 00:20:44;;;;;;;72.45;34.83;;;;;;;6.76;100.00;101358.59;5075116;28;20028;-72
2023/04/07 00:23:09;;;;;;;69.25;33.05;;;;;;;6.78;100.00;101351.63;5075154;28;20035;-72
2023/04/07 00:25:35;;;;;;;69.57;33.85;;;;;;;6.79;100.00;101354.28;5075252;28;20086;-71
2023/04/07 00:28:00;;;;;;;69.88;33.78;;;;;;;6.83;100.00;101364.88;5070963;28;20028;-71
2023/04/07 00:30:26;;;;;;;72.13;34.55;;;;;;;6.81;100.00;101362.22;5074912;28;20037;-72
2023/04/07 00:32:51;;;;;;;69.88;34.85;;;;;;;6.75;100.00;101367.31;5075113;28;20037;-72
2023/04/07 00:35:16;;;;;;;71.68;34.42;;;;;;;6.73;100.00;101366.38;5074932;28;20107;-72
2023/04/07 00:37:42;;;;;;;63.95;34.10;;;;;;;6.75;100.00;101362.94;5074844;28;20048;-71
2023/04/07 00:40:08;;;;;;;67.85;35.50;;;;;;;6.69;100.00;101364.50;5074737;28;20115;-71
2023/04/07 00:42:34;;;;;;;72.13;35.95;;;;;;;6.68;100.00;101360.97;5074793;28;20032;-72
2023/04/07 00:45:00;;;;;;;71.88;35.63;;;;;;;6.70;100.00;101364.56;5075000;28;20028;-73
2023/04/07 00:47:25;;;;;;;68.85;35.75;;;;;;;6.67;100.00;101358.31;5074712;28;20467;-72
2023/04/07 00:49:51;;;;;;;74.72;36.53;;;;;;;6.63;100.00;101358.22;5074521;28;20040;-71
2023/04/07 00:52:17;;;;;;;65.75;34.58;;;;;;;6.65;100.00;101354.75;5074820;28;20021;-71
2023/04/07 00:54:45;;;;;;;68.97;35.85;;;;;;;6.66;100.00;101357.44;5074419;28;20031;-72
2023/04/07 00:57:10;;;;;;;73.47;35.75;;;;;;;6.65;100.00;101357.38;5074759;28;20025;-74
2023/04/07 00:59:36;;;;;;;69.07;34.65;;;;;;;6.65;100.00;101355.63;5074732;28;20032;-75
2023/04/07 01:02:11;;;;;;;61.10;32.58;;;;;;;6.65;100.00;101354.75;5074409;28;20421;-72
2023/04/07 01:04:40;;;;;;;55.05;30.67;;;;;;;6.62;100.00;101361.69;5071072;28;20052;-73
2023/04/07 01:07:10;;;;;;;56.58;30.20;;;;;;;6.59;100.00;101361.59;5074289;28;20043;-76
2023/04/07 01:10:11;;;;;;;49.80;27.60;;;;;;;6.53;100.00;101369.31;5070963;28;20505;-74
2023/04/07 01:12:42;;;;;;;52.22;27.50;;;;;;;6.48;100.00;101360.44;5052245;28;20040;-73
2023/04/07 01:15:11;;;;;;;49.95;27.33;;;;;;;6.50;100.00;101356.09;5074258;28;20475;-73
2023/04/07 01:17:41;;;;;;;51.80;29.20;;;;;;;6.49;100.00;101370.06;5074100;28;20030;-74
2023/04/07 01:20:13;;;;;;;47.60;26.77;;;;;;;6.44;100.00;101363.81;5073253;28;20024;-72
2023/04/07 01:22:42;;;;;;;59.20;33.67;;;;;;;6.42;100.00;101357.59;5074172;28;20038;-73
2023/04/07 01:25:49;;;;;;;63.30;35.95;;;;;;;6.49;100.00;101371.81;5072867;28;20111;-74
2023/04/07 01:28:43;;;;;;;60.75;34.20;;;;;;;6.56;100.00;101366.78;5071569;28;20024;-73
2023/04/07 01:31:11;;;;;;;59.05;34.75;;;;;;;6.49;100.00;101364.81;5070790;28;20543;-73
2023/04/07 01:33:37;;;;;;;64.70;36.08;;;;;;;6.49;100.00;101362.19;5073797;28;20055;-73
2023/04/07 01:36:05;;;;;;;64.28;35.55;;;;;;;6.51;100.00;101373.66;5073776;28;20031;-76
2023/04/07 01:38:32;;;;;;;63.20;36.20;;;;;;;6.45;100.00;101366.47;5073453;28;20385;-76
2023/04/07 01:40:59;;;;;;;60.25;35.40;;;;;;;6.45;100.00;101365.56;5073792;28;20033;-76
2023/04/07 01:43:27;;;;;;;61.35;35.10;;;;;;;6.40;100.00;101372.44;5073758;28;20475;-76
2023/04/07 01:45:53;;;;;;;66.38;35.15;;;;;;;6.40;100.00;101373.31;5073531;28;20024;-76
2023/04/07 01:48:20;;;;;;;57.78;32.47;;;;;;;6.39;100.00;101381.16;5073607;28;20024;-76
2023/04/07 01:50:46;;;;;;;58.20;31.73;;;;;;;6.41;100.00;101374.22;5073475;28;20119;-76
2023/04/07 01:53:12;;;;;;;52.28;28.95;;;;;;;6.40;100.00;101377.69;5073395;28;20127;-76
2023/04/07 01:55:38;;;;;;;51.28;28.42;;;;;;;6.34;100.00;101385.38;5073507;28;20039;-76
2023/04/07 01:58:05;;;;;;;51.25;27.67;;;;;;;6.30;100.00;101389.63;5073339;28;20033;-76
2023/04/07 02:00:30;;;;;;;48.47;28.08;;;;;;;6.25;100.00;101386.88;5073353;28;20059;-76
2023/04/07 02:03:00;;;;;;;49.75;27.23;;;;;;;6.26;100.00;101393.91;5073416;28;20060;-76
2023/04/07 02:05:29;;;;;;;47.47;25.10;;;;;;;6.25;100.00;101394.75;5073425;28;20052;-76
2023/04/07 02:08:02;;;;;;;44.55;24.77;;;;;;;6.25;100.00;101397.38;5073115;28;20071;-76
2023/04/07 02:10:29;;;;;;;43.60;23.10;;;;;;;6.22;100.00;101402.53;5072945;28;20024;-76
2023/04/07 02:12:57;;;;;;;42.75;23.25;;;;;;;6.17;100.00;101401.50;5073238;28;20059;-76
2023/04/07 02:15:25;;;;;;;43.53;23.30;;;;;;;6.15;100.00;101397.94;5072896;28;20025;-76
2023/04/07 02:17:53;;;;;;;40.55;21.83;;;;;;;6.21;100.00;101385.00;5072930;28;20028;-74
2023/04/07 02:20:20;;;;;;;39.83;21.63;;;;;;;6.19;100.00;101391.94;5073084;28;20060;-73
2023/04/07 02:22:46;;;;;;;43.42;21.88;;;;;;;6.20;100.00;101393.69;5072911;28;20037;-72
2023/04/07 02:25:24;;;;;;;39.45;19.95;;;;;;;6.25;100.00;101392.13;5072890;28;20070;-72
2023/04/07 02:27:49;;;;;;;37.20;18.60;;;;;;;6.22;100.00;101381.53;5072859;28;20020;-72
2023/04/07 02:30:15;;;;;;;36.63;17.10;;;;;;;6.27;100.00;101386.91;5072884;28;20123;-72
2023/04/07 02:32:40;;;;;;;35.63;16.80;;;;;;;6.16;100.00;101386.59;5072514;28;20049;-72
2023/04/07 02:35:06;;;;;;;35.00;16.20;;;;;;;6.16;100.00;101376.09;5072858;28;20529;-72
2023/04/07 02:37:31;;;;;;;35.10;16.05;;;;;;;6.17;100.00;101377.84;5068642;28;20056;-74
2023/04/07 02:39:57;;;;;;;29.33;13.85;;;;;;;6.14;100.00;101377.78;5072571;28;20036;-74
2023/04/07 02:42:23;;;;;;;30.13;13.82;;;;;;;6.15;100.00;101383.94;5072799;28;20040;-74
2023/04/07 02:44:49;;;;;;;30.08;13.50;;;;;;;6.14;100.00;101382.13;5072596;28;20108;-74
2023/04/07 02:47:14;;;;;;;31.30;13.48;;;;;;;6.11;100.00;101385.56;5071261;28;20130;-72
2023/04/07 02:49:40;;;;;;;29.98;13.65;;;;;;;6.15;100.00;101383.94;5072686;28;20384;-72
2023/04/07 02:52:05;;;;;;;33.10;14.73;;;;;;;6.12;100.00;101384.72;5072484;28;20024;-71
2023/04/07 02:54:31;;;;;;;34.45;14.73;;;;;;;6.14;100.00;101374.25;5072525;28;20490;-71
2023/04/07 02:56:56;;;;;;;32.83;15.70;;;;;;;6.13;100.00;101376.00;5072705;28;20502;-73
2023/04/07 02:59:21;;;;;;;34.70;16.58;;;;;;;6.16;100.00;101381.34;5072482;28;20428;-72
2023/04/07 03:01:47;;;;;;;33.80;16.30;;;;;;;6.15;100.00;101383.94;5072336;28;20029;-72
2023/04/07 03:04:12;;;;;;;34.80;16.27;;;;;;;6.14;100.00;101384.75;5072808;28;20033;-72
2023/04/07 03:06:37;;;;;;;35.13;16.60;;;;;;;6.19;100.00;101386.69;5072451;28;20475;-74
2023/04/07 03:09:03;;;;;;;33.80;16.90;;;;;;;6.17;100.00;101380.47;5072400;28;20035;-74
2023/04/07 03:11:28;;;;;;;32.85;16.30;;;;;;;6.12;100.00;101384.72;5072746;28;20075;-72
2023/04/07 03:13:54;;;;;;;33.75;15.93;;;;;;;6.10;100.00;101384.66;5072567;28;20037;-70
2023/04/07 03:16:19;;;;;;;32.58;15.80;;;;;;;6.02;100.00;101380.03;5072261;28;20029;-74
2023/04/07 03:18:45;;;;;;;37.03;16.67;;;;;;;6.01;100.00;101386.09;5072463;28;20040;-71
2023/04/07 03:21:10;;;;;;;36.72;17.73;;;;;;;6.01;100.00;101387.00;5072231;28;20037;-72
2023/04/07 03:23:35;;;;;;;37.53;18.63;;;;;;;6.03;100.00;101384.41;5072394;28;20113;-71
2023/04/07 03:26:01;;;;;;;40.78;19.38;;;;;;;6.01;100.00;101386.09;5072237;28;20389;-71
2023/04/07 03:28:26;;;;;;;40.67;21.73;;;;;;;5.98;100.00;101386.00;5072057;28;20082;-71
2023/04/07 03:30:52;;;;;;;43.53;22.27;;;;;;;6.00;100.00;101389.56;5072258;28;20040;-71
2023/04/07 03:33:17;;;;;;;44.90;23.35;;;;;;;5.99;100.00;101390.44;5071990;28;20031;-71
2023/04/07 03:35:42;;;;;;;42.22;22.10;;;;;;;5.99;100.00;101393.06;5072113;28;20028;-71
2023/04/07 03:38:08;;;;;;;42.60;21.73;;;;;;;6.03;100.00;101400.16;5072054;28;20048;-71
2023/04/07 03:40:34;;;;;;;43.00;20.67;;;;;;;6.02;100.00;101387.91;5072055;28;20041;-72
2023/04/07 03:43:00;;;;;;;43.63;22.88;;;;;;;5.97;100.00;101389.44;5072794;28;20487;-71
2023/04/07 03:45:25;;;;;;;43.05;21.55;;;;;;;6.00;100.00;101394.81;5075984;28;20032;-71
2023/04/07 03:47:52;;;;;;;42.67;21.40;;;;;;;6.01;100.00;101388.72;5074545;28;20024;-70
2023/04/07 03:50:18;;;;;;;40.33;20.08;;;;;;;6.02;100.00;101395.78;5075664;28;20082;-70
2023/04/07 03:52:43;;;;;;;41.67;21.85;;;;;;;6.00;100.00;101394.81;5075888;28;20052;-73
2023/04/07 03:55:09;;;;;;;42.28;21.70;;;;;;;5.96;100.00;101400.81;5075627;28;20480;-70
2023/04/07 03:57:34;;;;;;;41.67;20.65;;;;;;;6.00;100.00;101394.81;5074680;28;20085;-73
2023/04/07 03:59:59;;;;;;;40.30;19.20;;;;;;;6.03;100.00;101401.06;5075756;28;20078;-70
2023/04/07 04:02:25;;;;;;;40.13;18.75;;;;;;;6.03;100.00;101393.19;5074223;28;20024;-70
2023/04/07 04:04:50;;;;;;;41.03;19.10;;;;;;;6.00;100.00;101397.44;5075690;28;20510;-71
2023/04/07 04:07:15;;;;;;;40.25;18.67;;;;;;;5.94;100.00;101396.38;5075340;28;20029;-70
2023/04/07 04:09:41;;;;;;;40.88;19.13;;;;;;;5.94;100.00;101396.38;5075251;28;20115;-70
2023/04/07 04:12:06;;;;;;;41.65;18.42;;;;;;;5.94;100.00;101393.75;5075504;28;20108;-71
2023/04/07 04:14:32;;;;;;;39.22;18.30;;;;;;;5.93;100.00;101405.09;5075304;28;20036;-70
2023/04/07 04:16:57;;;;;;;40.08;17.80;;;;;;;5.93;100.00;101394.59;5075135;28;20067;-71
2023/04/07 04:19:22;;;;;;;37.85;18.20;;;;;;;5.99;100.00;101393.06;5075424;28;20025;-70
2023/04/07 04:21:48;;;;;;;39.88;18.17;;;;;;;5.92;100.00;101394.53;5075264;28;20472;-71
2023/04/07 04:24:13;;;;;;;41.47;18.73;;;;;;;5.89;100.00;101392.72;5075087;28;20040;-72
2023/04/07 04:26:38;;;;;;;41.63;18.33;;;;;;;5.89;100.00;101391.81;5075344;28;20089;-71
2023/04/07 04:29:04;;;;;;;39.67;17.95;;;;;;;5.89;100.00;101389.19;5074985;28;20036;-73
2023/04/07 04:31:29;;;;;;;43.53;17.60;;;;;;;5.85;100.00;101395.19;5075044;28;20099;-74
2023/04/07 04:33:55;;;;;;;39.90;17.40;;;;;;;5.83;100.00;101397.75;5075138;28;20032;-71
2023/04/07 04:36:20;;;;;;;39.58;16.48;;;;;;;5.80;100.00;101395.03;5074863;28;20420;-73
2023/04/07 04:38:45;;;;;;;40.38;17.25;;;;;;;5.77;100.00;101397.56;5074775;28;20064;-71
2023/04/07 04:41:11;;;;;;;40.13;16.58;;;;;;;5.78;100.00;101401.97;5074725;28;20119;-71
2023/04/07 04:43:36;;;;;;;41.13;17.58;;;;;;;5.79;100.00;101406.38;5074769;28;20024;-73
2023/04/07 04:46:01;;;;;;;40.45;16.80;;;;;;;5.75;100.00;101407.09;5074981;28;20081;-71
2023/04/07 04:48:27;;;;;;;41.95;17.30;;;;;;;5.72;100.00;101414.88;5074621;28;20356;-72
2023/04/07 04:50:52;;;;;;;42.67;16.80;;;;;;;5.71;100.00;101413.13;5074533;28;20025;-71
2023/04/07 04:53:17;;;;;;;43.45;18.10;;;;;;;5.67;100.00;101422.59;5074729;28;20115;-71
2023/04/07 04:55:46;;;;;;;41.75;17.10;;;;;;;5.68;100.00;101418.22;5073298;28;20034;-71
2023/04/07 04:58:11;;;;;;;41.50;16.58;;;;;;;5.66;100.00;101425.19;5073412;28;20039;-71
2023/04/07 05:00:37;;;;;;;42.88;17.33;;;;;;;5.65;100.00;101423.38;5074657;28;20037;-71
2023/04/07 05:03:03;;;;;;;44.05;16.83;;;;;;;5.64;100.00;101429.50;5074523;28;20071;-71
2023/04/07 05:05:28;;;;;;;43.13;17.15;;;;;;;5.74;100.00;101435.09;5074449;28;20364;-73
2023/04/07 05:07:53;;;;;;;42.17;17.73;;;;;;;5.68;100.00;101434.88;5074518;28;20085;-71
2023/04/07 05:10:19;;;;;;;42.65;17.88;;;;;;;5.73;100.00;101435.03;5074159;28;20040;-72
2023/04/07 05:12:44;;;;;;;41.83;17.60;;;;;;;5.73;100.00;101438.53;5074220;28;20100;-75
2023/04/07 05:15:10;;;;;;;40.65;17.98;;;;;;;5.75;100.00;101434.25;5074301;28;20116;-71
2023/04/07 05:17:35;;;;;;;41.75;18.08;;;;;;;5.78;100.00;101438.69;5074130;28;20024;-71
2023/04/07 05:20:01;;;;;;;41.85;18.45;;;;;;;5.80;100.00;101444.03;5074267;28;20082;-72
2023/04/07 05:22:27;;;;;;;42.97;18.90;;;;;;;5.76;100.00;101443.88;5072766;28;20060;-71
2023/04/07 05:24:52;;;;;;;44.33;19.08;;;;;;;5.77;100.00;101444.81;5072776;28;20073;-70
2023/04/07 05:27:17;;;;;;;42.95;18.65;;;;;;;5.83;100.00;101447.63;5074068;28;20024;-74
2023/04/07 05:29:43;;;;;;;42.13;18.23;;;;;;;5.80;100.00;101455.41;5064196;28;20162;-70
2023/04/07 05:32:08;;;;;;;44.30;19.15;;;;;;;5.80;100.00;101455.41;5063744;28;20040;-70
2023/04/07 05:34:33;;;;;;;40.53;18.55;;;;;;;5.78;100.00;101456.19;5072961;28;20370;-71
2023/04/07 05:36:59;;;;;;;43.55;19.80;;;;;;;5.76;100.00;101456.13;5075257;28;20396;-71
2023/04/07 05:39:24;;;;;;;42.42;19.17;;;;;;;5.80;100.00;101458.03;5066690;28;20059;-75
2023/04/07 05:41:50;;;;;;;41.97;19.65;;;;;;;5.80;100.00;101454.50;5070639;28;20037;-74
2023/04/07 05:44:16;;;;;;;44.50;20.77;;;;;;;5.83;100.00;101462.47;5068002;28;20024;-72
2023/04/07 05:46:41;;;;;;;44.05;20.70;;;;;;;5.81;100.00;101457.19;5077211;28;20124;-72
2023/04/07 05:49:06;;;;;;;43.15;20.55;;;;;;;5.86;100.00;101462.59;5074133;28;20024;-75
2023/04/07 05:51:32;;;;;;;43.97;20.83;;;;;;;5.84;100.00;101459.00;5069566;28;20116;-72
2023/04/07 05:54:02;;;;;;;46.03;22.27;;;;;;;5.86;100.00;101460.84;5070290;28;20028;-73
2023/04/07 05:56:27;;;;;;;47.22;21.92;;;;;;;5.87;100.00;101457.38;5071104;28;20033;-71
2023/04/07 05:58:52;;;;;;;46.17;21.38;;;;;;;5.88;100.00;101458.25;5074806;28;20478;-73
2023/04/07 06:01:18;;;;;;;48.30;22.88;;;;;;;5.91;100.00;101459.28;5069234;28;20569;-71
2023/04/07 06:03:43;;;;;;;47.45;23.00;;;;;;;5.93;100.00;101468.06;5074777;28;20055;-71
2023/04/07 06:06:09;;;;;;;49.65;22.27;;;;;;;5.96;100.00;101462.03;5067605;28;20078;-70
2023/04/07 06:08:35;;;;;;;49.33;22.02;;;;;;;5.97;100.00;101468.19;5070205;28;20112;-72
2023/04/07 06:11:00;;;;;;;48.17;23.42;;;;;;;6.01;100.00;101464.84;5068097;28;20037;-72
2023/04/07 06:13:26;;;;;;;47.70;22.98;;;;;;;6.06;100.00;101474.66;5069767;28;20044;-71
2023/04/07 06:15:54;;;;;;;45.63;22.13;;;;;;;6.15;100.00;101481.94;5068098;28;20033;-72
2023/04/07 06:18:20;;;;;;;51.72;23.58;;;;;;;6.18;100.00;101476.78;5068976;28;20123;-71
2023/04/07 06:20:45;;;;;;;48.45;23.30;;;;;;;6.16;100.00;101483.75;5068417;28;20419;-71
2023/04/07 06:23:11;;;;;;;48.53;24.38;;;;;;;6.14;100.00;101488.03;5067111;28;20094;-71
2023/04/07 06:25:36;;;;;;;45.90;22.15;;;;;;;6.19;100.00;101478.59;5063084;28;20033;-71
2023/04/07 06:28:01;;;;;;;48.58;23.10;;;;;;;6.25;100.00;101481.41;5074003;28;20040;-72
2023/04/07 06:30:27;;;;;;;47.58;23.50;;;;;;;6.28;100.00;101485.88;5065934;28;20082;-72
2023/04/07 06:32:52;;;;;;;48.53;24.02;;;;;;;6.25;100.00;101493.66;5065867;28;20475;-70
2023/04/07 06:35:18;;;;;;;52.08;26.75;;;;;;;6.20;100.00;101496.09;5067792;28;20032;-72
2023/04/07 06:37:43;;;;;;;53.10;25.63;;;;;;;6.23;100.00;101495.31;5073348;28;20063;-72
2023/04/07 06:40:09;;;;;;;50.90;26.13;;;;;;;6.27;100.00;101498.09;5064174;28;20587;-73
2023/04/07 06:42:34;;;;;;;52.75;26.52;;;;;;;6.27;100.00;101489.31;5066859;28;20028;-71
2023/04/07 06:44:59;;;;;;;49.22;26.35;;;;;;;6.34;100.00;101500.94;5065880;28;20758;-73
2023/04/07 06:47:25;;;;;;;52.88;25.65;;;;;;;6.39;100.00;101504.56;5065276;28;20033;-74
2023/04/07 06:49:50;;;;;;;46.80;23.73;;;;;;;6.41;100.00;101506.41;5067363;28;20097;-73
2023/04/07 06:52:16;;;;;;;45.67;24.15;;;;;;;6.43;100.00;101504.72;5065836;28;20108;-70
2023/04/07 06:54:41;;;;;;;47.40;24.20;;;;;;;6.58;100.00;101506.97;5069837;28;20044;-69
2023/04/07 06:57:10;;;;;;;42.47;21.80;;;;;;;6.70;100.00;101510.78;5061789;28;20403;-71
2023/04/07 06:59:37;;;;;;;43.22;22.45;;;;;;;6.82;100.00;101511.19;5065907;28;20046;-71
2023/04/07 07:02:02;;;;;;;44.53;21.50;;;;;;;6.87;100.00;101519.19;5066158;28;20028;-71
2023/04/07 07:04:27;;;;;;;39.42;20.40;;;;;;;6.85;100.00;101527.03;5068448;28;20443;-71
2023/04/07 07:06:54;;;;;;;37.53;19.45;;;;;;;6.88;100.00;101521.88;5063752;28;20028;-74
2023/04/07 07:09:20;;;;;;;37.28;18.75;;;;;;;6.82;100.00;101519.06;5070842;28;20103;-73
2023/04/07 07:11:46;;;;;;;32.88;16.33;;;;;;;6.82;100.00;101524.31;5068449;28;20162;-73
2023/04/07 07:14:12;;;;;;;31.00;15.77;;;;;;;6.80;100.00;101516.41;5070109;28;20082;-71
2023/04/07 07:16:38;;;;;;;30.75;14.02;;;;;;;6.84;100.00;101520.00;5070008;28;20028;-70
2023/04/07 07:19:03;;;;;;;30.13;13.90;;;;;;;6.94;100.00;101519.41;5075122;28;20039;-76
2023/04/07 07:21:28;;;;;;;32.03;15.05;;;;;;;7.08;100.00;101522.47;5073974;28;20021;-73
2023/04/07 07:23:54;;;;;;;30.17;14.02;;;;;;;7.28;100.00;101516.88;5071715;28;20037;-76
2023/04/07 07:26:19;;;;;;;28.38;13.40;;;;;;;7.40;100.00;101526.91;5078958;28;20024;-78
2023/04/07 07:28:45;;;;;;;28.77;13.98;;;;;;;7.34;100.00;101519.72;5069147;28;20424;-76
2023/04/07 07:31:14;;;;;;;27.17;12.80;;;;;;;7.35;100.00;101520.59;5076935;28;20070;-76
2023/04/07 07:33:42;;;;;;;27.40;11.80;;;;;;;7.53;100.00;101514.94;5070226;28;20028;-78
2023/04/07 07:36:08;;;;;;;28.98;12.00;;;;;;;7.63;100.00;101519.59;5079983;28;20539;-76
2023/04/07 07:38:34;;;;;;;26.92;12.30;;;;;;;7.84;100.00;101522.81;5069858;28;20128;-77
2023/04/07 07:40:59;;;;;;;25.05;10.18;;;;;;;8.02;100.00;101518.88;5070911;28;20066;-80
2023/04/07 07:43:25;;;;;;;23.80;9.23;;;;;;;7.97;100.00;101520.53;5066027;28;20418;-77
2023/04/07 07:45:50;;;;;;;22.60;8.55;;;;;;;7.91;100.00;101526.50;5073879;28;20068;-76
2023/04/07 07:48:15;;;;;;;25.00;9.63;;;;;;;7.84;100.00;101524.56;5073884;28;20028;-76
2023/04/07 07:50:43;;;;;;;23.60;9.00;;;;;;;7.82;100.00;101521.91;5080242;28;20040;-76
2023/04/07 07:53:08;;;;;;;24.20;9.50;;;;;;;7.78;100.00;101524.41;5073717;28;20024;-76
2023/04/07 07:55:34;;;;;;;23.35;8.68;;;;;;;7.81;100.00;101524.50;5073513;28;20531;-76
2023/04/07 07:57:59;;;;;;;22.67;8.15;;;;;;;7.76;100.00;101518.19;5072536;28;20033;-76
2023/04/07 08:00:25;;;;;;;22.10;8.50;;;;;;;7.79;100.00;101531.44;5069699;28;20032;-76
2023/04/07 08:02:50;;;;;;;22.48;7.50;;;;;;;7.90;100.00;101524.72;5071265;28;20391;-78
2023/04/07 08:05:15;;;;;;;24.00;8.50;;;;;;;8.04;100.00;101527.72;5070644;28;20088;-78
2023/04/07 08:07:42;;;;;;;20.98;7.25;;;;;;;8.13;100.00;101527.94;5065739;28;20037;-79
2023/04/07 08:10:08;;;;;;;21.08;7.05;;;;;;;8.14;100.00;101534.09;5076690;28;20119;-73
2023/04/07 08:12:34;;;;;;;21.95;6.80;;;;;;;8.18;100.00;101538.59;5068101;28;20056;-72
2023/04/07 08:14:59;;;;;;;21.08;7.18;;;;;;;8.22;100.00;101542.22;5072478;28;20383;-77
2023/04/07 08:17:25;;;;;;;21.08;6.90;;;;;;;8.17;100.00;101539.47;5074119;28;20040;-80
2023/04/07 08:19:50;;;;;;;20.67;6.88;;;;;;;8.09;100.00;101541.00;5073073;28;20063;-77
2023/04/07 08:22:17;;;;;;;21.05;6.95;;;;;;;8.12;100.00;101539.31;5071698;28;20112;-79
2023/04/07 08:24:42;;;;;;;21.85;6.63;;;;;;;8.20;100.00;101553.59;5072070;28;20028;-81
2023/04/07 08:27:07;;;;;;;22.13;6.78;;;;;;;8.29;100.00;101549.41;5062558;28;20025;-77
2023/04/07 08:29:33;;;;;;;20.90;6.68;;;;;;;8.31;100.00;101550.34;5064552;28;20027;-73
2023/04/07 08:31:58;;;;;;;20.15;6.18;;;;;;;8.32;100.00;101549.50;5070363;28;20136;-75
2023/04/07 08:34:23;;;;;;;20.42;6.07;;;;;;;8.29;100.00;101554.69;5068815;28;20059;-77
2023/04/07 08:36:49;;;;;;;20.60;5.88;;;;;;;8.17;100.00;101556.16;5071306;28;20028;-72
2023/04/07 08:39:14;;;;;;;20.23;5.40;;;;;;;8.10;100.00;101555.97;5071894;28;20041;-74
2023/04/07 08:41:41;;;;;;;17.75;5.38;;;;;;;8.12;100.00;101551.63;5076592;28;20039;-81
2023/04/07 08:44:08;;;;;;;17.63;5.22;;;;;;;7.85;100.00;101558.84;5073629;28;20028;-76
2023/04/07 08:46:33;;;;;;;19.13;5.47;;;;;;;7.83;100.00;101562.25;5070936;28;20027;-74
2023/04/07 08:49:00;;;;;;;18.77;5.53;;;;;;;7.81;100.00;101562.22;5072254;28;20409;-79
2023/04/07 08:51:31;;;;;;;20.92;5.40;;;;;;;7.81;100.00;101561.34;5070847;28;20541;-76
2023/04/07 08:54:08;;;;;;;20.35;5.50;;;;;;;7.93;100.00;101564.28;5070091;28;20028;-78
2023/04/07 08:56:33;;;;;;;18.63;5.40;;;;;;;8.04;100.00;101572.50;5069871;28;20024;-77
2023/04/07 08:59:01;;;;;;;19.33;5.10;;;;;;;8.20;100.00;101581.69;5076367;28;20388;-72
2023/04/07 09:01:28;;;;;;;18.35;4.90;;;;;;;8.36;100.00;101573.31;5068977;28;20120;-80
2023/04/07 09:03:56;;;;;;;19.30;5.22;;;;;;;8.56;100.00;101580.84;5067619;28;20074;-78
2023/04/07 09:06:21;;;;;;;18.48;4.60;;;;;;;8.65;100.00;101578.44;5071762;28;20064;-77
2023/04/07 09:08:47;;;;;;;18.38;4.63;;;;;;;8.82;100.00;101575.31;5070323;28;20070;-77
2023/04/07 09:11:12;;;;;;;13.68;4.15;;;;;;;8.96;100.00;101575.63;5066548;28;20403;-80
2023/04/07 09:13:37;;;;;;;14.10;4.22;;;;;;;9.15;100.00;101577.81;5069536;28;20467;-74
2023/04/07 09:16:03;;;;;;;18.00;4.18;;;;;;;9.28;100.00;101578.09;5075411;28;20021;-74
2023/04/07 09:18:29;;;;;;;16.25;3.97;;;;;;;9.34;100.00;101579.09;5072482;28;20029;-75
2023/04/07 09:21:00;;;;;;;16.20;4.07;;;;;;;9.31;100.00;101581.66;5074357;28;20089;-77
2023/04/07 09:23:43;;;;;;;16.58;3.80;;;;;;;9.27;100.00;101586.84;5071448;28;20032;-74
2023/04/07 09:26:23;;;;;;;18.75;4.13;;;;;;;9.10;100.00;101583.84;5074104;28;20386;-78
2023/04/07 09:28:52;;;;;;;17.00;4.15;;;;;;;9.07;100.00;101589.94;5071269;28;20021;-78
2023/04/07 09:31:20;;;;;;;18.48;4.55;;;;;;;9.08;100.00;101582.03;5069892;28;20029;-74
2023/04/07 09:33:46;;;;;;;15.82;4.03;;;;;;;9.05;100.00;101589.03;5072418;28;20028;-74
2023/04/07 09:36:11;;;;;;;17.95;4.15;;;;;;;9.00;100.00;101590.66;5071571;28;20048;-71
2023/04/07 09:38:40;;;;;;;16.80;4.20;;;;;;;9.15;100.00;101590.13;5071326;28;20040;-74
2023/04/07 09:41:11;;;;;;;19.88;4.30;;;;;;;9.24;100.00;101587.66;5074675;28;20028;-76
2023/04/07 09:43:38;;;;;;;17.85;4.25;;;;;;;9.31;100.00;101583.44;5071722;28;20024;-71
2023/04/07 09:46:14;;;;;;;17.58;4.40;;;;;;;9.50;100.00;101585.59;5079785;28;20031;-76
2023/04/07 09:48:41;;;;;;;16.60;4.22;;;;;;;9.51;100.00;101582.09;5069725;28;20025;-74
2023/04/07 09:51:17;;;;;;;17.77;4.25;;;;;;;9.54;100.00;101576.00;5065811;28;20116;-73
2023/04/07 09:53:49;;;;;;;15.52;4.03;;;;;;;9.48;100.00;101578.47;5069242;28;20115;-75
2023/04/07 09:56:21;;;;;;;15.82;4.20;;;;;;;9.55;100.00;101583.94;5075602;28;20032;-76
2023/04/07 09:58:50;;;;;;;16.08;4.22;;;;;;;9.46;100.00;101586.38;5065956;28;20183;-75
2023/04/07 10:01:16;;;;;;;17.70;4.05;;;;;;;9.25;100.00;101584.19;5069126;28;20102;-72
2023/04/07 10:03:42;;;;;;;17.58;4.15;;;;;;;9.07;100.00;101589.94;5073923;28;20033;-72
2023/04/07 10:06:07;;;;;;;18.70;4.47;;;;;;;8.97;100.00;101593.22;5074861;28;20532;-73
2023/04/07 10:08:37;;;;;;;21.52;4.88;;;;;;;8.88;100.00;101588.63;5070442;28;20032;-73
2023/04/07 10:11:04;;;;;;;20.73;4.65;;;;;;;8.93;100.00;101600.19;5074037;28;20024;-73
2023/04/07 10:13:31;;;;;;;20.75;4.75;;;;;;;9.04;100.00;101606.59;5066146;28;20127;-73
2023/04/07 10:15:57;;;;;;;18.60;4.55;;;;;;;9.09;100.00;101596.16;5070622;28;20028;-72
2023/04/07 10:18:29;;;;;;;19.42;4.72;;;;;;;9.06;100.00;101599.59;5071035;28;20020;-73
2023/04/07 10:20:55;;;;;;;17.80;4.40;;;;;;;9.12;100.00;101603.25;5063404;28;20028;-72
2023/04/07 10:23:55;;;;;;;18.92;4.32;;;;;;;9.21;100.00;101606.06;5069108;28;20028;-73
2023/04/07 10:26:25;;;;;;;18.17;4.47;;;;;;;9.15;100.00;101613.88;5071627;28;20463;-73
2023/04/07 10:28:57;;;;;;;17.10;4.78;;;;;;;9.36;100.00;101610.78;5069012;28;20040;-73
2023/04/07 10:31:23;;;;;;;19.45;4.45;;;;;;;9.57;100.00;101623.56;5064449;28;20029;-71
2023/04/07 10:33:51;;;;;;;17.45;4.40;;;;;;;9.83;100.00;101615.25;5063912;28;20029;-70
2023/04/07 10:36:20;;;;;;;16.60;4.20;;;;;;;10.03;100.00;101619.22;5066373;28;20025;-74
2023/04/07 10:39:07;;;;;;;15.90;4.05;;;;;;;10.12;100.00;101616.72;5066060;28;20044;-79
2023/04/07 10:41:37;;;;;;;16.77;4.22;;;;;;;9.98;100.00;101626.13;5062817;28;20028;-76
2023/04/07 10:44:04;;;;;;;18.52;4.47;;;;;;;10.01;100.00;101620.91;5063003;28;20071;-72
2023/04/07 10:46:45;;;;;;;16.20;4.35;;;;;;;9.92;100.00;101623.38;5063184;28;20024;-71
2023/04/07 10:49:19;;;;;;;19.65;4.70;;;;;;;9.67;100.00;101624.63;5064067;28;20025;-70
2023/04/07 10:52:10;;;;;;;17.33;4.22;;;;;;;9.68;100.00;101629.06;5058580;28;20028;-71
2023/04/07 10:54:36;;;;;;;17.50;4.65;;;;;;;9.60;100.00;101629.78;5066295;28;20033;-73
2023/04/07 10:57:02;;;;;;;18.70;4.78;;;;;;;9.77;100.00;101616.94;5061602;28;20024;-72
2023/04/07 10:59:31;;;;;;;17.52;4.10;;;;;;;9.83;100.00;101625.81;5065674;28;20396;-72
2023/04/07 11:02:28;;;;;;;18.45;3.88;;;;;;;9.99;100.00;101627.94;5064162;28;20024;-71
2023/04/07 11:04:53;;;;;;;19.88;4.50;;;;;;;9.86;100.00;101633.81;5063146;28;20040;-76
2023/04/07 11:07:42;;;;;;;18.15;4.40;;;;;;;10.01;100.00;101634.13;5066247;28;20096;-73
2023/04/07 11:10:10;;;;;;;19.75;4.30;;;;;;;10.37;100.00;101629.50;5067513;28;20029;-71
2023/04/07 11:12:35;;;;;;;15.75;4.28;;;;;;;10.57;100.00;101628.13;5065631;28;20509;-77